Time;durP1;ratioP1;P1;durP2;ratioP2;P2;SDS_P1;SDS_P2;PMS_P1;PMS_P2;Temp;Humidity;BMP_temperature;BMP_pressure;BME280_temperature;BME280_humidity;BME280_pressure;Samples;Min_cycle;Max_cycle;Signal;HPM_P1;HPM_P2
2023/05/03 00:00:34;;;;;;;6.97;5.13;;;;;;;;;;5104481;28;20178;-74
2023/05/03 00:03:38;;;;;;;5.57;4.73;;;;;;;;;;5093048;28;20194;-74
2023/05/03 00:06:43;;;;;;;6.87;4.93;;;;;;;;;;5116958;28;20194;-74
2023/05/03 00:09:48;;;;;;;6.30;5.57;;;;;;;;;;5116898;28;20194;-74
2023/05/03 00:12:54;;;;;;;6.13;5.53;;;;;;;;;;5092300;28;20226;-74
2023/05/03 00:15:58;;;;;;;6.37;5.77;;;;;;;;;;5103999;28;20194;-74
2023/05/03 00:19:02;;;;;;;5.47;4.83;;;;;;;;;;5116980;28;20178;-75
2023/05/03 00:22:06;;;;;;;7.90;6.10;;;;;;;;;;5092339;28;20214;-75
2023/05/03 00:25:10;;;;;;;7.37;6.23;;;;;;;;;;5104092;28;20178;-74
2023/05/03 00:28:14;;;;;;;9.43;7.03;;;;;;;;;;5116585;28;20178;-75
2023/05/03 00:31:19;;;;;;;6.57;5.87;;;;;;;;;;5104015;28;20693;-74
2023/05/03 00:34:22;;;;;;;9.60;6.00;;;;;;;;;;5103649;28;20179;-74
2023/05/03 00:37:28;;;;;;;10.30;5.97;;;;;;;;;;5103874;28;20181;-74
2023/05/03 00:40:33;;;;;;;12.97;6.80;;;;;;;;;;5103406;28;20202;-75
2023/05/03 00:43:37;;;;;;;7.37;5.63;;;;;;;;;;5092057;28;20174;-74
2023/05/03 00:46:41;;;;;;;7.83;5.80;;;;;;;;;;5116487;28;20182;-74
2023/05/03 00:49:45;;;;;;;8.00;6.03;;;;;;;;;;5103435;28;20186;-74
2023/05/03 00:52:50;;;;;;;11.83;6.27;;;;;;;;;;5091872;28;20698;-74
2023/05/03 00:55:54;;;;;;;8.73;6.63;;;;;;;;;;5091752;28;20178;-74
2023/05/03 00:58:59;;;;;;;7.73;5.77;;;;;;;;;;5103659;28;20178;-74
2023/05/03 01:02:03;;;;;;;6.43;5.77;;;;;;;;;;5103446;28;20206;-74
2023/05/03 01:05:07;;;;;;;6.93;5.57;;;;;;;;;;5103601;28;20174;-74
2023/05/03 01:08:28;;;;;;;6.90;5.70;;;;;;;;;;5103187;28;20178;-74
2023/05/03 01:11:53;;;;;;;8.40;5.90;;;;;;;;;;5115560;28;20225;-74
2023/05/03 01:15:06;;;;;;;7.63;6.67;;;;;;;;;;5091793;28;20183;-74
2023/05/03 01:18:20;;;;;;;7.67;6.27;;;;;;;;;;5115533;28;20189;-74
2023/05/03 01:21:24;;;;;;;7.47;6.50;;;;;;;;;;5091512;28;20664;-74
2023/05/03 01:24:32;;;;;;;10.07;6.90;;;;;;;;;;5102792;28;20198;-74
2023/05/03 01:27:37;;;;;;;7.17;6.43;;;;;;;;;;5091173;28;20174;-75
2023/05/03 01:30:42;;;;;;;9.17;6.50;;;;;;;;;;5102875;28;20180;-75
2023/05/03 01:33:56;;;;;;;6.53;5.70;;;;;;;;;;5102694;28;20167;-74
2023/05/03 01:37:02;;;;;;;8.07;7.27;;;;;;;;;;5079901;28;20178;-74
2023/05/03 01:40:08;;;;;;;9.67;7.57;;;;;;;;;;5092723;28;20205;-75
2023/05/03 01:43:15;;;;;;;10.23;8.50;;;;;;;;;;5115120;28;20170;-74
2023/05/03 01:46:19;;;;;;;7.97;6.97;;;;;;;;;;5102548;28;20514;-75
2023/05/03 01:49:23;;;;;;;9.87;7.50;;;;;;;;;;5102597;28;20187;-75
2023/05/03 01:52:28;;;;;;;8.67;7.47;;;;;;;;;;5114519;28;20217;-74
2023/05/03 01:55:32;;;;;;;8.90;7.70;;;;;;;;;;5102330;28;20174;-75
2023/05/03 01:58:36;;;;;;;8.77;7.13;;;;;;;;;;5102636;28;20182;-74
2023/05/03 02:01:40;;;;;;;9.40;7.97;;;;;;;;;;5078893;28;20209;-74
2023/05/03 02:04:45;;;;;;;7.80;7.00;;;;;;;;;;5102145;28;20174;-74
2023/05/03 02:07:49;;;;;;;8.47;7.37;;;;;;;;;;5090502;28;20182;-74
2023/05/03 02:10:53;;;;;;;8.83;7.30;;;;;;;;;;5090647;28;20621;-74
2023/05/03 02:13:57;;;;;;;9.87;7.43;;;;;;;;;;5114771;28;20182;-74
2023/05/03 02:17:02;;;;;;;7.33;6.53;;;;;;;;;;5102418;28;20203;-75
2023/05/03 02:20:08;;;;;;;8.17;7.17;;;;;;;;;;5101917;28;20182;-74
2023/05/03 02:23:13;;;;;;;8.53;7.23;;;;;;;;;;5114055;28;20178;-73
2023/05/03 02:26:17;;;;;;;7.63;6.63;;;;;;;;;;5114602;28;20182;-75
2023/05/03 02:29:21;;;;;;;7.27;6.33;;;;;;;;;;5113957;28;20193;-75
2023/05/03 02:32:25;;;;;;;6.50;5.77;;;;;;;;;;5101534;28;20229;-74
2023/05/03 02:35:29;;;;;;;7.07;6.37;;;;;;;;;;5101606;28;20194;-75
2023/05/03 02:38:35;;;;;;;9.10;6.70;;;;;;;;;;5113935;28;20278;-75
2023/05/03 02:41:39;;;;;;;7.60;6.33;;;;;;;;;;5101312;28;20213;-74
2023/05/03 02:44:45;;;;;;;8.10;6.60;;;;;;;;;;5090496;28;20174;-74
2023/05/03 02:47:49;;;;;;;10.50;7.27;;;;;;;;;;5078082;28;20636;-74
2023/05/03 02:50:53;;;;;;;19.10;7.07;;;;;;;;;;5101435;28;20178;-74
2023/05/03 02:53:58;;;;;;;11.30;6.40;;;;;;;;;;5089874;28;20217;-74
2023/05/03 02:57:03;;;;;;;12.67;7.77;;;;;;;;;;5089506;28;20194;-74
2023/05/03 03:00:10;;;;;;;33.00;7.97;;;;;;;;;;5113893;28;20175;-74
2023/05/03 03:03:14;;;;;;;27.70;7.27;;;;;;;;;;5101244;28;20170;-74
2023/05/03 03:06:18;;;;;;;16.80;6.93;;;;;;;;;;5101309;28;20197;-74
2023/05/03 03:09:22;;;;;;;26.47;6.80;;;;;;;;;;5089775;28;20178;-74
2023/05/03 03:12:27;;;;;;;8.77;7.47;;;;;;;;;;5100835;28;20687;-74
2023/05/03 03:15:32;;;;;;;8.23;7.33;;;;;;;;;;5101712;28;20170;-74
2023/05/03 03:18:36;;;;;;;25.37;7.50;;;;;;;;;;5104983;28;20178;-75
2023/05/03 03:21:40;;;;;;;8.33;7.07;;;;;;;;;;5105100;28;20217;-75
2023/05/03 03:24:46;;;;;;;7.57;6.50;;;;;;;;;;5093762;28;20174;-74
2023/05/03 03:27:50;;;;;;;8.30;7.17;;;;;;;;;;5117741;28;20182;-74
2023/05/03 03:30:54;;;;;;;7.17;6.47;;;;;;;;;;5105362;28;20182;-74
2023/05/03 03:34:01;;;;;;;6.83;6.13;;;;;;;;;;5082167;28;20198;-74
2023/05/03 03:37:07;;;;;;;7.20;6.50;;;;;;;;;;5104921;28;20182;-75
2023/05/03 03:40:15;;;;;;;7.33;6.20;;;;;;;;;;5092906;28;20669;-75
2023/05/03 03:43:19;;;;;;;7.40;5.83;;;;;;;;;;5081207;22;20232;-69
2023/05/03 03:46:24;;;;;;;7.30;6.30;;;;;;;;;;5044625;28;20642;-69
2023/05/03 03:49:31;;;;;;;6.03;5.43;;;;;;;;;;5044390;28;20631;-69
2023/05/03 03:52:35;;;;;;;6.07;5.47;;;;;;;;;;5044416;28;20219;-69
2023/05/03 03:55:40;;;;;;;6.30;5.60;;;;;;;;;;5044574;28;20534;-69
2023/05/03 03:58:45;;;;;;;6.40;5.80;;;;;;;;;;5044084;28;20200;-69
2023/05/03 04:01:49;;;;;;;5.77;5.17;;;;;;;;;;5043827;28;20223;-69
2023/05/03 04:04:53;;;;;;;6.93;6.23;;;;;;;;;;5032482;28;20527;-69
2023/05/03 04:07:57;;;;;;;6.13;5.53;;;;;;;;;;5044070;28;20176;-69
2023/05/03 04:11:10;;;;;;;5.50;4.97;;;;;;;;;;5032836;28;20215;-69
2023/05/03 04:14:16;;;;;;;5.70;5.10;;;;;;;;;;5044011;28;20666;-69
2023/05/03 04:17:20;;;;;;;6.40;5.67;;;;;;;;;;5041720;28;20209;-70
2023/05/03 04:20:24;;;;;;;5.63;5.00;;;;;;;;;;5048149;28;20204;-69
2023/05/03 04:23:30;;;;;;;6.60;5.20;;;;;;;;;;5043608;28;20172;-70
2023/05/03 04:26:34;;;;;;;5.83;4.87;;;;;;;;;;5027681;28;20681;-69
2023/05/03 04:29:45;;;;;;;5.50;4.50;;;;;;;;;;5041968;28;20181;-70
2023/05/03 04:32:52;;;;;;;5.43;4.53;;;;;;;;;;5043064;28;20698;-69
2023/05/03 04:35:57;;;;;;;5.10;4.60;;;;;;;;;;5031775;28;20180;-70
2023/05/03 04:39:03;;;;;;;5.37;4.87;;;;;;;;;;5054464;28;20200;-69
2023/05/03 04:42:09;;;;;;;4.63;4.13;;;;;;;;;;5042830;28;20686;-69
2023/05/03 04:45:14;;;;;;;6.17;5.13;;;;;;;;;;5043104;28;20184;-69
2023/05/03 04:48:19;;;;;;;5.87;5.00;;;;;;;;;;5055231;28;20180;-69
2023/05/03 04:51:24;;;;;;;6.27;5.50;;;;;;;;;;5034139;28;20216;-69
2023/05/03 04:54:30;;;;;;;6.90;5.83;;;;;;;;;;5023165;28;20683;-70
2023/05/03 04:57:35;;;;;;;7.70;5.43;;;;;;;;;;5011809;28;20181;-69
2023/05/03 05:00:41;;;;;;;7.77;5.90;;;;;;;;;;5022882;28;20172;-69
2023/05/03 05:03:52;;;;;;;6.90;6.20;;;;;;;;;;5022726;28;20173;-69
2023/05/03 05:07:00;;;;;;;7.30;5.77;;;;;;;;;;5034057;28;20636;-69
2023/05/03 05:10:07;;;;;;;6.73;5.90;;;;;;;;;;5033939;28;20200;-69
2023/05/03 05:13:13;;;;;;;7.17;6.13;;;;;;;;;;5034067;28;20212;-70
2023/05/03 05:16:19;;;;;;;7.87;6.43;;;;;;;;;;5034301;28;20544;-68
2023/05/03 05:19:28;;;;;;;8.67;6.63;;;;;;;;;;5034125;28;20185;-68
2023/05/03 05:22:32;;;;;;;7.67;6.30;;;;;;;;;;5022515;28;20224;-68
2023/05/03 05:25:37;;;;;;;17.47;14.80;;;;;;;;;;5022528;28;20181;-69
2023/05/03 05:28:42;;;;;;;12.63;8.00;;;;;;;;;;5022476;28;20176;-69
2023/05/03 05:31:46;;;;;;;11.27;6.70;;;;;;;;;;5022220;28;20216;-69
2023/05/03 05:34:53;;;;;;;10.23;6.17;;;;;;;;;;5033601;28;20204;-68
2023/05/03 05:37:58;;;;;;;8.10;7.20;;;;;;;;;;5033626;28;20524;-69
2023/05/03 05:41:04;;;;;;;9.33;7.57;;;;;;;;;;5033041;28;20177;-69
2023/05/03 05:44:08;;;;;;;8.87;7.67;;;;;;;;;;5021969;28;20200;-69
2023/05/03 05:47:12;;;;;;;12.80;8.97;;;;;;;;;;5010628;28;20192;-69
2023/05/03 05:50:18;;;;;;;12.07;9.20;;;;;;;;;;5038735;28;20196;-69
2023/05/03 05:53:26;;;;;;;11.13;9.43;;;;;;;;;;5041602;28;20212;-69
2023/05/03 05:56:35;;;;;;;11.70;9.27;;;;;;;;;;5041908;28;20177;-69
2023/05/03 05:59:39;;;;;;;12.50;9.17;;;;;;;;;;5052951;28;20200;-68
2023/05/03 06:02:44;;;;;;;11.10;9.17;;;;;;;;;;5052958;28;20220;-69
2023/05/03 06:05:52;;;;;;;14.40;10.10;;;;;;;;;;5041156;28;20196;-69
2023/05/03 06:08:57;;;;;;;15.07;10.50;;;;;;;;;;5053452;28;20179;-69
2023/05/03 06:12:01;;;;;;;12.70;10.10;;;;;;;;;;5041267;28;20215;-69
2023/05/03 06:15:08;;;;;;;13.87;9.73;;;;;;;;;;5041403;28;20172;-69
2023/05/03 06:18:14;;;;;;;13.10;9.73;;;;;;;;;;5041182;28;20184;-69
2023/05/03 06:21:18;;;;;;;13.80;9.60;;;;;;;;;;5052305;28;20223;-69
2023/05/03 06:24:22;;;;;;;12.47;9.87;;;;;;;;;;5052718;28;20659;-68
2023/05/03 06:27:29;;;;;;;12.67;10.57;;;;;;;;;;5052358;28;20184;-69
2023/05/03 06:30:34;;;;;;;12.80;9.67;;;;;;;;;;5029607;28;20180;-69
2023/05/03 06:33:44;;;;;;;12.37;10.47;;;;;;;;;;5040471;28;20204;-68
2023/05/03 06:36:49;;;;;;;11.90;10.23;;;;;;;;;;5052050;28;20172;-69
2023/05/03 06:39:53;;;;;;;13.87;9.93;;;;;;;;;;5040367;28;20200;-68
2023/05/03 06:42:57;;;;;;;13.20;10.40;;;;;;;;;;5052793;28;20231;-69
2023/05/03 06:46:11;;;;;;;13.50;10.70;;;;;;;;;;5041001;28;20176;-69
2023/05/03 06:49:15;;;;;;;14.87;10.33;;;;;;;;;;5040709;28;20184;-69
2023/05/03 06:52:20;;;;;;;13.27;11.13;;;;;;;;;;5008906;28;20227;-69
2023/05/03 06:55:24;;;;;;;13.47;10.73;;;;;;;;;;5021109;28;20248;-69
2023/05/03 06:58:28;;;;;;;13.30;10.10;;;;;;;;;;5033238;28;20188;-69
2023/05/03 07:01:33;;;;;;;13.77;9.43;;;;;;;;;;5032876;28;20597;-69
2023/05/03 07:04:38;;;;;;;13.93;10.77;;;;;;;;;;5033258;28;20177;-69
2023/05/03 07:07:42;;;;;;;12.97;10.30;;;;;;;;;;5032637;28;20544;-69
2023/05/03 07:10:46;;;;;;;13.47;10.70;;;;;;;;;;5032661;28;20195;-69
2023/05/03 07:13:51;;;;;;;12.60;9.77;;;;;;;;;;5032517;28;20219;-69
2023/05/03 07:16:55;;;;;;;15.63;11.10;;;;;;;;;;5029349;28;20212;-69
2023/05/03 07:20:00;;;;;;;12.63;10.27;;;;;;;;;;5051294;28;20211;-69
2023/05/03 07:23:05;;;;;;;12.70;10.07;;;;;;;;;;5040494;28;20226;-69
2023/05/03 07:26:09;;;;;;;12.13;10.00;;;;;;;;;;5052361;28;20247;-69
2023/05/03 07:29:13;;;;;;;11.57;10.37;;;;;;;;;;5052461;28;20195;-69
2023/05/03 07:32:18;;;;;;;14.53;10.20;;;;;;;;;;5052457;28;20226;-69
2023/05/03 07:35:22;;;;;;;12.50;10.17;;;;;;;;;;5052698;28;20657;-69
2023/05/03 07:38:26;;;;;;;10.90;9.63;;;;;;;;;;5040513;28;20191;-69
2023/05/03 07:41:30;;;;;;;12.27;10.97;;;;;;;;;;5052716;28;20220;-69
2023/05/03 07:44:35;;;;;;;11.97;10.33;;;;;;;;;;5052526;28;20198;-69
2023/05/03 07:47:39;;;;;;;12.00;10.70;;;;;;;;;;5052600;28;20251;-69
2023/05/03 07:50:44;;;;;;;11.70;10.23;;;;;;;;;;5052638;28;20219;-69
2023/05/03 07:53:48;;;;;;;11.57;10.37;;;;;;;;;;5052278;28;20686;-69
2023/05/03 07:56:52;;;;;;;17.30;10.87;;;;;;;;;;5040477;28;20183;-69
2023/05/03 07:59:56;;;;;;;13.00;9.90;;;;;;;;;;5052363;28;20187;-69
2023/05/03 08:03:03;;;;;;;10.90;9.73;;;;;;;;;;5053032;28;20224;-69
2023/05/03 08:06:07;;;;;;;11.90;10.20;;;;;;;;;;5043599;28;20176;-69
2023/05/03 08:09:11;;;;;;;13.67;10.57;;;;;;;;;;5056111;28;20630;-69
2023/05/03 08:12:15;;;;;;;10.93;9.63;;;;;;;;;;5055803;28;20219;-70
2023/05/03 08:15:19;;;;;;;10.43;9.33;;;;;;;;;;5055042;28;20682;-69
2023/05/03 08:18:23;;;;;;;11.00;9.33;;;;;;;;;;5055863;28;20180;-69
2023/05/03 08:21:27;;;;;;;10.97;9.83;;;;;;;;;;5055519;28;20223;-69
2023/05/03 08:24:31;;;;;;;11.57;10.00;;;;;;;;;;5055405;28;20191;-69
2023/05/03 08:27:36;;;;;;;11.67;10.37;;;;;;;;;;5054557;28;20681;-69
2023/05/03 08:30:40;;;;;;;13.60;10.80;;;;;;;;;;5055437;28;20551;-69
2023/05/03 08:33:44;;;;;;;10.77;9.63;;;;;;;;;;5055208;28;20215;-70
2023/05/03 08:36:48;;;;;;;13.13;11.20;;;;;;;;;;5055941;28;20184;-70
2023/05/03 08:39:52;;;;;;;16.70;10.70;;;;;;;;;;5055199;28;20189;-70
2023/05/03 08:42:59;;;;;;;14.23;9.87;;;;;;;;;;5055235;28;20242;-70
2023/05/03 08:46:03;;;;;;;11.57;9.77;;;;;;;;;;5055086;28;20180;-70
2023/05/03 08:49:08;;;;;;;10.43;9.33;;;;;;;;;;5031527;28;20677;-70
2023/05/03 08:52:14;;;;;;;11.37;9.33;;;;;;;;;;5054968;28;20216;-70
2023/05/03 08:55:18;;;;;;;12.73;10.20;;;;;;;;;;5054991;28;20208;-70
2023/05/03 08:58:22;;;;;;;11.97;10.73;;;;;;;;;;5055210;28;20662;-70
2023/05/03 09:01:26;;;;;;;12.37;10.50;;;;;;;;;;5042904;28;20728;-70
2023/05/03 09:04:35;;;;;;;13.90;10.63;;;;;;;;;;5055081;28;20203;-70
2023/05/03 09:07:39;;;;;;;14.47;11.03;;;;;;;;;;5042599;28;20187;-70
2023/05/03 09:10:43;;;;;;;12.00;10.70;;;;;;;;;;5055071;28;20187;-70
2023/05/03 09:13:48;;;;;;;13.23;10.60;;;;;;;;;;5031011;28;20195;-70
2023/05/03 09:16:52;;;;;;;11.87;10.47;;;;;;;;;;5054720;28;20187;-70
2023/05/03 09:19:57;;;;;;;12.33;11.03;;;;;;;;;;5054325;28;20195;-70
2023/05/03 09:23:01;;;;;;;11.27;10.07;;;;;;;;;;5042330;28;20223;-70
2023/05/03 09:26:06;;;;;;;11.07;9.73;;;;;;;;;;5042315;28;20187;-70
2023/05/03 09:29:27;;;;;;;9.67;8.63;;;;;;;;;;5054683;28;20184;-70
2023/05/03 09:32:46;;;;;;;11.00;8.53;;;;;;;;;;5042192;28;20216;-69
2023/05/03 09:35:59;;;;;;;10.87;9.00;;;;;;;;;;5054075;28;20220;-69
2023/05/03 09:39:15;;;;;;;9.90;8.87;;;;;;;;;;5054325;28;20180;-69
2023/05/03 09:42:19;;;;;;;9.60;8.57;;;;;;;;;;5053140;28;20224;-70
2023/05/03 09:45:23;;;;;;;9.30;8.23;;;;;;;;;;5054199;28;20524;-69
2023/05/03 09:48:28;;;;;;;9.23;8.13;;;;;;;;;;5054070;28;20516;-69
2023/05/03 09:51:32;;;;;;;11.60;8.63;;;;;;;;;;5053732;28;20223;-69
2023/05/03 09:54:37;;;;;;;8.70;7.90;;;;;;;;;;5041455;28;20572;-69
2023/05/03 09:57:46;;;;;;;11.40;8.80;;;;;;;;;;5053042;28;20180;-69
2023/05/03 10:00:51;;;;;;;8.80;7.90;;;;;;;;;;5041557;28;20516;-69
2023/05/03 10:03:56;;;;;;;9.17;8.30;;;;;;;;;;5053493;28;20208;-69
2023/05/03 10:07:07;;;;;;;11.20;9.00;;;;;;;;;;5053545;28;20195;-70
2023/05/03 10:10:11;;;;;;;9.93;8.93;;;;;;;;;;5053568;28;20192;-69
2023/05/03 10:13:15;;;;;;;9.63;8.63;;;;;;;;;;5053675;28;20180;-71
2023/05/03 10:16:25;;;;;;;10.00;8.40;;;;;;;;;;5041011;28;20196;-71
2023/05/03 10:19:32;;;;;;;9.70;8.70;;;;;;;;;;5053550;28;20184;-71
2023/05/03 10:23:07;;;;;;;8.93;7.80;;;;;;;;;;5021326;28;20221;-71
2023/05/03 10:26:12;;;;;;;9.13;8.03;;;;;;;;;;5032882;28;20185;-71
2023/05/03 10:29:36;;;;;;;8.43;7.57;;;;;;;;;;5033076;28;20627;-71
2023/05/03 10:32:42;;;;;;;7.80;6.97;;;;;;;;;;5033545;28;20216;-71
2023/05/03 10:35:53;;;;;;;9.17;8.27;;;;;;;;;;5033243;28;20213;-71
2023/05/03 10:38:57;;;;;;;9.20;7.30;;;;;;;;;;5010089;28;20529;-71
2023/05/03 10:42:08;;;;;;;7.77;6.03;;;;;;;;;;5033109;28;20569;-71
2023/05/03 10:45:27;;;;;;;6.63;6.00;;;;;;;;;;5033426;28;20192;-71
2023/05/03 10:48:32;;;;;;;7.80;7.00;;;;;;;;;;5033443;28;20181;-72
2023/05/03 10:51:37;;;;;;;6.67;6.00;;;;;;;;;;5048467;28;20567;-71
2023/05/03 10:54:41;;;;;;;9.97;6.23;;;;;;;;;;5029534;28;20227;-71
2023/05/03 10:57:47;;;;;;;7.03;6.40;;;;;;;;;;5053078;28;20191;-72
2023/05/03 11:00:51;;;;;;;9.43;5.90;;;;;;;;;;5052693;28;20180;-71
2023/05/03 11:04:07;;;;;;;9.43;5.80;;;;;;;;;;5052566;28;20635;-71
2023/05/03 11:07:21;;;;;;;7.63;6.50;;;;;;;;;;5052749;28;20196;-71
2023/05/03 11:10:25;;;;;;;8.37;6.23;;;;;;;;;;5052815;28;20180;-71
2023/05/03 11:13:29;;;;;;;6.97;6.30;;;;;;;;;;5052715;28;20196;-71
2023/05/03 11:16:35;;;;;;;10.70;6.80;;;;;;;;;;5052507;28;20200;-70
2023/05/03 11:19:42;;;;;;;9.60;6.53;;;;;;;;;;5040149;28;20184;-71
2023/05/03 11:22:47;;;;;;;7.17;6.27;;;;;;;;;;5052646;28;20216;-70
2023/05/03 11:25:51;;;;;;;7.30;6.40;;;;;;;;;;5052679;28;20527;-71
2023/05/03 11:28:56;;;;;;;8.90;6.47;;;;;;;;;;5052576;28;20188;-70
2023/05/03 11:32:00;;;;;;;8.00;5.87;;;;;;;;;;5052271;28;20212;-71
2023/05/03 11:35:08;;;;;;;10.17;5.77;;;;;;;;;;5052287;28;20207;-70
2023/05/03 11:38:12;;;;;;;11.43;6.17;;;;;;;;;;5040017;28;20199;-69
2023/05/03 11:41:17;;;;;;;6.00;5.40;;;;;;;;;;5098470;22;20234;-74
2023/05/03 11:44:21;;;;;;;5.63;5.00;;;;;;;;;;5117422;28;20175;-74
2023/05/03 11:47:25;;;;;;;7.47;5.90;;;;;;;;;;5117167;28;20178;-74
2023/05/03 11:50:54;;;;;;;7.63;6.80;;;;;;;;;;5117388;28;20182;-74
2023/05/03 11:54:00;;;;;;;9.73;6.00;;;;;;;;;;5104677;28;20177;-74
2023/05/03 11:57:11;;;;;;;7.77;6.57;;;;;;;;;;5117187;28;20186;-74
2023/05/03 12:00:16;;;;;;;6.73;5.70;;;;;;;;;;5104577;28;20651;-73
2023/05/03 12:03:23;;;;;;;5.57;5.07;;;;;;;;;;5117090;28;20178;-73
2023/05/03 12:06:32;;;;;;;6.10;5.50;;;;;;;;;;5117165;28;20197;-73
2023/05/03 12:09:36;;;;;;;4.50;4.10;;;;;;;;;;5116888;28;20183;-74
2023/05/03 12:12:50;;;;;;;5.10;4.30;;;;;;;;;;5116602;28;20687;-73
2023/05/03 12:15:59;;;;;;;5.00;4.50;;;;;;;;;;5104306;28;20206;-73
2023/05/03 12:19:03;;;;;;;5.80;4.73;;;;;;;;;;5116786;28;20178;-73
2023/05/03 12:22:18;;;;;;;6.30;4.57;;;;;;;;;;5116978;28;20551;-73
2023/05/03 12:25:23;;;;;;;5.47;3.80;;;;;;;;;;5116434;28;20180;-73
2023/05/03 12:28:27;;;;;;;4.10;3.20;;;;;;;;;;5116686;28;20630;-73
2023/05/03 12:31:31;;;;;;;5.13;3.33;;;;;;;;;;5104424;28;20212;-74
2023/05/03 12:34:35;;;;;;;5.03;3.50;;;;;;;;;;5104146;28;20175;-74
2023/05/03 12:37:39;;;;;;;4.03;3.47;;;;;;;;;;5116435;28;20176;-74
2023/05/03 12:40:43;;;;;;;4.40;3.55;;;;;;;;;;5103513;28;20203;-74
2023/05/03 12:43:48;;;;;;;4.20;3.58;;;;;;;;;;5116374;28;20176;-74
2023/05/03 12:46:52;;;;;;;4.40;3.77;;;;;;;;;;5116022;28;20166;-74
2023/05/03 12:49:56;;;;;;;4.90;4.40;;;;;;;;;;5102662;28;20179;-74
2023/05/03 12:53:00;;;;;;;7.23;5.70;;;;;;;;;;5092657;28;20206;-72
2023/05/03 12:56:05;;;;;;;8.27;5.07;;;;;;;;;;5116098;28;20668;-73
2023/05/03 12:59:09;;;;;;;5.57;5.07;;;;;;;;;;5115700;28;20190;-73
2023/05/03 13:02:13;;;;;;;4.97;4.33;;;;;;;;;;5115715;28;20680;-74
2023/05/03 13:05:18;;;;;;;8.60;5.57;;;;;;;;;;5115614;28;20190;-73
2023/05/03 13:08:23;;;;;;;6.97;4.40;;;;;;;;;;5116048;28;20186;-73
2023/05/03 13:11:28;;;;;;;5.83;5.20;;;;;;;;;;5115801;28;20217;-74
2023/05/03 13:14:32;;;;;;;5.10;4.63;;;;;;;;;;5115511;28;20174;-73
2023/05/03 13:17:36;;;;;;;6.83;4.90;;;;;;;;;;5115437;28;20174;-73
2023/05/03 13:20:41;;;;;;;5.30;4.23;;;;;;;;;;5115494;28;20178;-73
2023/05/03 13:23:45;;;;;;;6.23;4.33;;;;;;;;;;5115495;28;20632;-73
2023/05/03 13:26:49;;;;;;;4.30;3.77;;;;;;;;;;5116094;28;20597;-74
2023/05/03 13:29:53;;;;;;;3.93;3.53;;;;;;;;;;5115522;28;20648;-73
2023/05/03 13:32:57;;;;;;;4.97;4.47;;;;;;;;;;5115032;28;20214;-73
2023/05/03 13:36:01;;;;;;;5.53;3.87;;;;;;;;;;5115818;28;20214;-74
2023/05/03 13:39:08;;;;;;;4.13;3.73;;;;;;;;;;5115455;28;20509;-74
2023/05/03 13:42:12;;;;;;;4.53;4.13;;;;;;;;;;5115098;28;20230;-73
2023/05/03 13:45:17;;;;;;;4.57;4.10;;;;;;;;;;5102347;28;20186;-74
2023/05/03 13:48:22;;;;;;;5.07;3.60;;;;;;;;;;5115072;28;20195;-74
2023/05/03 13:51:27;;;;;;;4.50;2.90;;;;;;;;;;5114916;28;20217;-73
2023/05/03 13:54:31;;;;;;;4.00;3.03;;;;;;;;;;5102288;28;20175;-73
2023/05/03 13:57:35;;;;;;;9.90;3.53;;;;;;;;;;5114674;28;20520;-73
2023/05/03 14:00:40;;;;;;;7.13;4.50;;;;;;;;;;5114880;28;20523;-73
2023/05/03 14:03:44;;;;;;;7.57;3.83;;;;;;;;;;5114448;28;20198;-74
2023/05/03 14:06:48;;;;;;;5.80;3.87;;;;;;;;;;5090734;28;20629;-73
2023/05/03 14:09:52;;;;;;;6.00;3.73;;;;;;;;;;5114418;28;20178;-74
2023/05/03 14:12:56;;;;;;;5.07;4.00;;;;;;;;;;5114838;28;20557;-73
2023/05/03 14:16:00;;;;;;;4.37;3.93;;;;;;;;;;5114791;28;20198;-74
2023/05/03 14:19:04;;;;;;;4.80;3.83;;;;;;;;;;5114235;28;20170;-74
2023/05/03 14:22:08;;;;;;;4.33;3.73;;;;;;;;;;5101671;28;20217;-74
2023/05/03 14:25:13;;;;;;;3.70;3.40;;;;;;;;;;5114192;28;20186;-74
2023/05/03 14:28:18;;;;;;;4.60;3.40;;;;;;;;;;5114656;28;20174;-74
2023/05/03 14:31:22;;;;;;;4.20;3.80;;;;;;;;;;5114152;28;20214;-74
2023/05/03 14:34:27;;;;;;;7.63;3.77;;;;;;;;;;5114262;28;20522;-74
2023/05/03 14:37:32;;;;;;;4.57;3.47;;;;;;;;;;5101588;28;20202;-74
2023/05/03 14:40:36;;;;;;;5.30;3.33;;;;;;;;;;5113826;28;20209;-74
2023/05/03 14:43:40;;;;;;;4.07;3.63;;;;;;;;;;5114113;28;20182;-75
2023/05/03 14:46:45;;;;;;;4.93;3.93;;;;;;;;;;5114035;28;20190;-74
2023/05/03 14:49:50;;;;;;;6.67;4.13;;;;;;;;;;5113745;28;20185;-74
2023/05/03 14:52:54;;;;;;;5.30;3.57;;;;;;;;;;5114219;28;20208;-74
2023/05/03 14:55:58;;;;;;;4.00;3.33;;;;;;;;;;5101647;28;20212;-74
2023/05/03 14:59:03;;;;;;;4.20;3.77;;;;;;;;;;5101709;28;20534;-74
2023/05/03 15:02:08;;;;;;;3.33;3.03;;;;;;;;;;5113903;28;20554;-74
2023/05/03 15:05:14;;;;;;;4.20;3.47;;;;;;;;;;5113892;28;20620;-74
2023/05/03 15:08:20;;;;;;;4.50;3.20;;;;;;;;;;5113829;28;20174;-74
2023/05/03 15:11:26;;;;;;;3.87;3.50;;;;;;;;;;5101121;28;20218;-74
2023/05/03 15:14:30;;;;;;;3.80;3.40;;;;;;;;;;5093605;28;20198;-74
2023/05/03 15:17:36;;;;;;;4.67;3.83;;;;;;;;;;5118086;28;20210;-74
2023/05/03 15:20:40;;;;;;;3.30;2.80;;;;;;;;;;5118266;28;20170;-74
2023/05/03 15:23:47;;;;;;;7.27;3.47;;;;;;;;;;5117844;28;20178;-74
2023/05/03 15:26:51;;;;;;;4.03;2.33;;;;;;;;;;5118152;28;20174;-74
2023/05/03 15:29:55;;;;;;;3.40;3.03;;;;;;;;;;5118081;28;20186;-74
2023/05/03 15:33:00;;;;;;;4.07;2.73;;;;;;;;;;5104888;28;20213;-74
2023/05/03 15:36:07;;;;;;;4.27;2.77;;;;;;;;;;5118051;28;20202;-74
2023/05/03 15:39:11;;;;;;;2.80;2.50;;;;;;;;;;5117527;28;20178;-75
2023/05/03 15:42:16;;;;;;;8.37;4.80;;;;;;;;;;5117450;28;20217;-74
2023/05/03 15:45:21;;;;;;;4.37;3.97;;;;;;;;;;5118043;28;20605;-74
2023/05/03 15:48:26;;;;;;;4.13;3.57;;;;;;;;;;5117502;28;20616;-74
2023/05/03 15:51:30;;;;;;;4.30;3.90;;;;;;;;;;5105092;28;20205;-74
2023/05/03 15:54:34;;;;;;;4.37;3.67;;;;;;;;;;5117331;28;20521;-74
2023/05/03 15:57:39;;;;;;;3.73;3.27;;;;;;;;;;5117694;28;20213;-74
2023/05/03 16:00:44;;;;;;;5.23;3.63;;;;;;;;;;5104918;28;20174;-74
2023/05/03 16:03:48;;;;;;;3.87;3.17;;;;;;;;;;5117139;28;20198;-74
2023/05/03 16:06:52;;;;;;;3.17;2.87;;;;;;;;;;5117133;28;20178;-74
2023/05/03 16:09:56;;;;;;;3.40;3.10;;;;;;;;;;5104477;28;20553;-74
2023/05/03 16:13:00;;;;;;;3.73;3.40;;;;;;;;;;5104031;28;20209;-74
2023/05/03 16:16:04;;;;;;;4.80;3.73;;;;;;;;;;5104291;28;20209;-74
2023/05/03 16:19:09;;;;;;;4.83;3.37;;;;;;;;;;5104344;28;20178;-74
2023/05/03 16:22:13;;;;;;;4.70;3.50;;;;;;;;;;5104195;28;20217;-74
2023/05/03 16:25:17;;;;;;;3.97;3.33;;;;;;;;;;5103923;28;20174;-74
2023/05/03 16:28:22;;;;;;;6.73;3.23;;;;;;;;;;5104061;28;20166;-74
2023/05/03 16:31:28;;;;;;;5.63;3.57;;;;;;;;;;5103971;28;20257;-74
2023/05/03 16:34:32;;;;;;;3.60;3.10;;;;;;;;;;5116819;28;20174;-74
2023/05/03 16:37:37;;;;;;;5.53;3.40;;;;;;;;;;5116190;28;20210;-74
2023/05/03 16:40:42;;;;;;;3.90;3.30;;;;;;;;;;5103701;28;20201;-74
2023/05/03 16:43:46;;;;;;;4.47;2.80;;;;;;;;;;5116379;28;20179;-74
2023/05/03 16:46:50;;;;;;;3.47;2.67;;;;;;;;;;5116048;28;20178;-74
2023/05/03 16:49:56;;;;;;;4.47;3.00;;;;;;;;;;5115994;28;20178;-74
2023/05/03 16:53:00;;;;;;;3.50;3.20;;;;;;;;;;5115891;28;20210;-74
2023/05/03 16:56:05;;;;;;;3.63;2.40;;;;;;;;;;5115800;28;20189;-74
2023/05/03 16:59:09;;;;;;;6.90;2.97;;;;;;;;;;5115984;28;20553;-74
2023/05/03 17:02:13;;;;;;;3.77;3.10;;;;;;;;;;5115789;28;20213;-74
2023/05/03 17:05:19;;;;;;;3.13;2.63;;;;;;;;;;5115858;28;20182;-74
2023/05/03 17:08:22;;;;;;;3.57;2.60;;;;;;;;;;5103215;28;20178;-74
2023/05/03 17:11:26;;;;;;;3.90;3.13;;;;;;;;;;5102923;28;20526;-74
2023/05/03 17:14:31;;;;;;;4.87;2.40;;;;;;;;;;5102964;28;20178;-74
2023/05/03 17:17:35;;;;;;;3.40;2.50;;;;;;;;;;5115743;28;20210;-74
2023/05/03 17:20:39;;;;;;;5.03;2.50;;;;;;;;;;5115792;28;20174;-74
2023/05/03 17:23:44;;;;;;;3.10;2.67;;;;;;;;;;5115672;28;20621;-74
2023/05/03 17:26:49;;;;;;;4.37;2.60;;;;;;;;;;5103089;28;20186;-74
2023/05/03 17:29:56;;;;;;;2.57;2.37;;;;;;;;;;5115376;28;20178;-74
2023/05/03 17:33:00;;;;;;;4.50;2.73;;;;;;;;;;5115568;28;20205;-74
2023/05/03 17:36:04;;;;;;;4.43;3.23;;;;;;;;;;5114677;28;20624;-74
2023/05/03 17:39:08;;;;;;;3.40;3.10;;;;;;;;;;5102752;28;20645;-74
2023/05/03 17:42:12;;;;;;;11.80;3.73;;;;;;;;;;5115632;28;20226;-74
2023/05/03 17:45:16;;;;;;;3.43;2.93;;;;;;;;;;5114794;28;20174;-73
2023/05/03 17:48:20;;;;;;;4.03;2.70;;;;;;;;;;5115014;28;20170;-73
2023/05/03 17:51:25;;;;;;;5.10;2.87;;;;;;;;;;5102341;28;20213;-74
2023/05/03 17:54:29;;;;;;;4.20;2.37;;;;;;;;;;5102230;28;20174;-74
2023/05/03 17:57:35;;;;;;;4.90;2.73;;;;;;;;;;5114784;28;20210;-74
2023/05/03 18:00:39;;;;;;;23.97;4.50;;;;;;;;;;5102187;28;20174;-74
2023/05/03 18:03:43;;;;;;;11.83;3.70;;;;;;;;;;5101896;28;20182;-73
2023/05/03 18:06:47;;;;;;;11.00;3.10;;;;;;;;;;5114513;28;20190;-73
2023/05/03 18:09:52;;;;;;;11.27;4.10;;;;;;;;;;5114414;28;20186;-73
2023/05/03 18:12:55;;;;;;;3.63;3.00;;;;;;;;;;5114701;28;20652;-73
2023/05/03 18:16:00;;;;;;;6.40;3.10;;;;;;;;;;5114503;28;20174;-73
2023/05/03 18:19:04;;;;;;;7.53;3.03;;;;;;;;;;5101682;28;20178;-73
2023/05/03 18:22:08;;;;;;;5.23;2.90;;;;;;;;;;5114098;28;20545;-74
2023/05/03 18:25:12;;;;;;;2.73;2.50;;;;;;;;;;5101477;28;20182;-73